Terminal Aerodrome Forecast
Issued by NWS Chicago, IL

Home | Current Version | Previous Version | Graphics & Text | Print | Product List | Glossary On
Versions: 1 2 3 4 5 6 7 8 9 10 11 12 13 14 15 16 17 18 19 20 21 22 23 24 25 26 27 28 29 30 31 32 33 34 35 36
000
FTUS43 KLOT 282200 AAB
TAFRFD
TAF AMD
KRFD 282202Z 2822/2918 16016G24KT P6SM BKN150
     FM290400 18014G21KT P6SM SCT030 BKN100
     FM290900 23013KT 6SM -SHRA OVC010
     FM291500 33017G27KT P6SM OVC018=

USA.gov is the U.S. government's official web portal to all federal, state and local government web resources and services.